Time;durP1;ratioP1;P1;durP2;ratioP2;P2;SDS_P1;SDS_P2;PMS_P1;PMS_P2;Temp;Humidity;BMP_temperature;BMP_pressure;BME280_temperature;BME280_humidity;BME280_pressure;Samples;Min_cycle;Max_cycle;Signal;HPM_P1;HPM_P2
2022/06/21 00:01:26;;;;;;;7.80;2.03;;;13.00;99.90;;;;;;5023460;28;20037;-70
2022/06/21 00:03:54;;;;;;;9.35;1.92;;;13.00;99.90;;;;;;5027848;28;20042;-71
2022/06/21 00:06:22;;;;;;;8.02;1.73;;;13.00;99.90;;;;;;5020128;28;20025;-71
2022/06/21 00:08:48;;;;;;;8.20;1.75;;;12.90;99.90;;;;;;5042079;28;20397;-70
2022/06/21 00:11:34;;;;;;;7.13;1.92;;;12.90;99.90;;;;;;5044309;28;20033;-71
2022/06/21 00:14:00;;;;;;;5.75;1.42;;;12.90;99.90;;;;;;5041309;28;20061;-68
2022/06/21 00:16:28;;;;;;;7.35;2.75;;;12.90;99.90;;;;;;5044695;28;20449;-70
2022/06/21 00:18:54;;;;;;;4.97;2.08;;;12.80;99.90;;;;;;5041356;28;20083;-71
2022/06/21 00:21:33;;;;;;;4.25;1.73;;;12.80;99.90;;;;;;5038283;28;20139;-70
2022/06/21 00:23:58;;;;;;;5.72;1.75;;;12.80;99.90;;;;;;5025288;28;20037;-70
2022/06/21 00:26:26;;;;;;;4.05;1.90;;;12.80;99.90;;;;;;5047660;28;20045;-70
2022/06/21 00:28:52;;;;;;;8.25;2.65;;;12.80;99.90;;;;;;5022384;28;20397;-70
2022/06/21 00:31:21;;;;;;;7.20;2.55;;;12.70;99.90;;;;;;5021279;28;20043;-70
2022/06/21 00:33:47;;;;;;;7.80;2.15;;;12.70;99.90;;;;;;5039887;28;20106;-70
2022/06/21 00:36:29;;;;;;;9.27;2.88;;;12.70;99.90;;;;;;5021167;28;20112;-70
2022/06/21 00:38:56;;;;;;;4.57;2.05;;;12.60;99.90;;;;;;5029544;28;20045;-71
2022/06/21 00:41:36;;;;;;;7.38;2.40;;;12.70;99.90;;;;;;5048221;28;20036;-69
2022/06/21 00:44:04;;;;;;;8.10;2.70;;;12.70;99.90;;;;;;5049167;28;20053;-68
2022/06/21 00:46:44;;;;;;;8.75;2.85;;;12.60;99.90;;;;;;5020996;28;20021;-69
2022/06/21 00:49:30;;;;;;;;;;;12.60;99.90;;;;;;5017975;28;20088;-70
2022/06/21 00:52:04;;;;;;;10.77;3.42;;;12.60;99.90;;;;;;5037798;28;19917;-71
2022/06/21 00:54:54;;;;;;;9.35;2.25;;;12.50;99.90;;;;;;5043847;28;20155;-68
2022/06/21 00:57:24;;;;;;;6.53;2.33;;;12.50;99.90;;;;;;5037937;28;20056;-70
2022/06/21 00:59:50;;;;;;;4.63;2.60;;;12.50;99.90;;;;;;5021186;28;20040;-71
2022/06/21 01:02:32;;;;;;;10.55;2.45;;;12.40;99.90;;;;;;5021026;28;20052;-68
2022/06/21 01:04:59;;;;;;;7.75;2.13;;;12.40;99.90;;;;;;5037652;28;20556;-69
2022/06/21 01:07:25;;;;;;;6.85;2.33;;;12.40;99.90;;;;;;5019204;28;20041;-70
2022/06/21 01:10:07;;;;;;;9.30;2.30;;;12.40;99.90;;;;;;5038814;28;20025;-71
2022/06/21 01:12:40;;;;;;;6.00;2.00;;;12.40;99.90;;;;;;5043482;28;20099;-69
2022/06/21 01:15:10;;;;;;;5.82;2.45;;;12.30;99.90;;;;;;5024793;28;20055;-71
2022/06/21 01:17:39;;;;;;;14.15;2.42;;;12.30;99.90;;;;;;5037472;28;20514;-71
2022/06/21 01:20:09;;;;;;;6.90;2.35;;;12.20;99.90;;;;;;5039212;28;20033;-70
2022/06/21 01:22:49;;;;;;;6.20;2.37;;;12.20;99.90;;;;;;5020122;28;20037;-70
2022/06/21 01:25:38;;;;;;;6.40;2.10;;;12.20;99.90;;;;;;5036343;28;20294;-68
2022/06/21 01:28:05;;;;;;;5.53;2.45;;;12.20;99.90;;;;;;5037170;28;20045;-70
2022/06/21 01:30:31;;;;;;;10.65;2.35;;;12.10;99.90;;;;;;5017225;28;20061;-68
2022/06/21 01:32:58;;;;;;;22.17;2.53;;;12.10;99.90;;;;;;5025129;28;20060;-70
2022/06/21 01:35:42;;;;;;;6.05;2.58;;;12.10;99.90;;;;;;5023652;28;20065;-71
2022/06/21 01:38:12;;;;;;;7.22;2.53;;;12.10;99.90;;;;;;5034556;28;20033;-70
2022/06/21 01:40:44;;;;;;;10.02;2.03;;;12.10;99.90;;;;;;5022088;28;20036;-67
2022/06/21 01:43:14;;;;;;;8.05;2.33;;;12.10;99.90;;;;;;5019610;28;20025;-70
2022/06/21 01:45:44;;;;;;;6.05;2.78;;;12.10;99.90;;;;;;5035018;28;20041;-70
2022/06/21 01:48:21;;;;;;;9.35;2.28;;;12.00;99.90;;;;;;5021679;28;20057;-70
2022/06/21 01:50:48;;;;;;;6.85;2.38;;;12.00;99.90;;;;;;5038402;28;20039;-68
2022/06/21 01:53:17;;;;;;;4.45;1.95;;;12.00;99.90;;;;;;5021789;28;20032;-70
2022/06/21 01:55:49;;;;;;;6.00;2.20;;;12.00;99.90;;;;;;5038393;28;20578;-70
2022/06/21 01:58:21;;;;;;;5.05;1.88;;;12.00;99.90;;;;;;5021230;28;20038;-70
2022/06/21 02:01:00;;;;;;;6.95;2.17;;;11.90;99.90;;;;;;5038609;28;20067;-68
2022/06/21 02:03:32;;;;;;;6.72;2.30;;;11.90;99.90;;;;;;5017774;28;20097;-69
2022/06/21 02:06:01;;;;;;;8.60;2.55;;;11.90;99.90;;;;;;5035939;28;20029;-71
2022/06/21 02:08:37;;;;;;;4.63;2.40;;;11.90;99.90;;;;;;5018958;28;20223;-71
2022/06/21 02:11:09;;;;;;;5.82;2.50;;;11.90;99.90;;;;;;5033135;28;21398;-70
2022/06/21 02:13:44;;;;;;;6.70;2.40;;;11.80;99.90;;;;;;5038892;28;20390;-71
2022/06/21 02:16:20;;;;;;;7.07;2.10;;;11.80;99.90;;;;;;5038193;28;20064;-70
2022/06/21 02:18:52;;;;;;;6.85;1.95;;;11.80;99.90;;;;;;5048009;28;20075;-70
2022/06/21 02:21:29;;;;;;;8.05;2.75;;;11.80;99.90;;;;;;5049107;28;20029;-69
2022/06/21 02:23:57;;;;;;;7.97;2.15;;;11.80;99.90;;;;;;5040413;28;20047;-70
2022/06/21 02:26:25;;;;;;;13.13;3.13;;;11.70;99.90;;;;;;5040917;28;20033;-69
2022/06/21 02:28:51;;;;;;;8.60;2.30;;;11.70;99.90;;;;;;5037532;28;20036;-70
2022/06/21 02:31:17;;;;;;;4.53;2.30;;;11.70;99.90;;;;;;5038997;28;20112;-70
2022/06/21 02:33:46;;;;;;;3.67;1.80;;;11.70;99.90;;;;;;5020859;28;20048;-71
2022/06/21 02:36:22;;;;;;;9.32;2.80;;;11.70;99.90;;;;;;5025342;28;20102;-71
2022/06/21 02:38:54;;;;;;;4.68;2.10;;;11.60;99.90;;;;;;5044513;28;20036;-69
2022/06/21 02:41:42;;;;;;;6.72;2.78;;;11.60;99.90;;;;;;5023546;28;20037;-70
2022/06/21 02:44:17;;;;;;;10.93;3.13;;;11.60;99.90;;;;;;5034398;28;20029;-69
2022/06/21 02:46:49;;;;;;;8.32;2.97;;;11.60;99.90;;;;;;5019967;28;20060;-71
2022/06/21 02:49:24;;;;;;;6.72;2.38;;;11.50;99.90;;;;;;5020427;28;20030;-71
2022/06/21 02:52:06;;;;;;;4.03;2.10;;;11.50;99.90;;;;;;5039322;28;20094;-68
2022/06/21 02:54:58;;;;;;;7.07;2.45;;;11.50;99.90;;;;;;5038441;28;20120;-71
2022/06/21 02:57:33;;;;;;;6.18;2.88;;;11.50;99.90;;;;;;5021170;28;20048;-69
2022/06/21 03:00:02;;;;;;;9.70;2.70;;;11.50;99.90;;;;;;5032802;28;20029;-71
2022/06/21 03:02:32;;;;;;;6.35;2.63;;;11.40;99.90;;;;;;5014308;28;20041;-71
2022/06/21 03:05:04;;;;;;;6.10;2.55;;;11.40;99.90;;;;;;5029524;28;20030;-71
2022/06/21 03:07:34;;;;;;;5.15;2.40;;;11.40;99.90;;;;;;5032853;28;20037;-71
2022/06/21 03:10:00;;;;;;;12.52;3.45;;;11.40;99.90;;;;;;5042192;28;20543;-70
2022/06/21 03:12:30;;;;;;;8.00;2.40;;;11.40;99.90;;;;;;5039288;28;20030;-71
2022/06/21 03:15:03;;;;;;;5.43;2.53;;;11.30;99.90;;;;;;5025185;28;20055;-70
2022/06/21 03:17:36;;;;;;;8.07;2.97;;;11.30;99.90;;;;;;5019474;28;20033;-71
2022/06/21 03:20:05;;;;;;;8.20;2.83;;;11.30;99.90;;;;;;5042545;28;20040;-69
2022/06/21 03:22:34;;;;;;;5.43;2.55;;;11.30;99.90;;;;;;5039370;28;20057;-71
2022/06/21 03:25:04;;;;;;;9.07;3.65;;;11.30;99.90;;;;;;5024925;28;20119;-70
2022/06/21 03:27:47;;;;;;;7.05;2.90;;;11.30;99.90;;;;;;5025113;28;20117;-71
2022/06/21 03:30:14;;;;;;;5.40;2.50;;;11.30;99.90;;;;;;5041418;28;20087;-70
2022/06/21 03:32:40;;;;;;;8.13;2.38;;;11.30;99.90;;;;;;5040518;28;20045;-70
2022/06/21 03:35:07;;;;;;;5.80;2.50;;;11.30;99.90;;;;;;5040493;28;20044;-68
2022/06/21 03:37:36;;;;;;;7.53;2.60;;;11.30;99.90;;;;;;5024350;28;20417;-70
2022/06/21 03:42:49;;;;;;;5.93;2.40;;;11.30;99.90;;;;;;5039290;28;20044;-70
2022/06/21 03:45:21;;;;;;;5.75;2.17;;;11.30;99.90;;;;;;5042005;28;20409;-70
2022/06/21 03:48:00;;;;;;;7.97;2.45;;;11.30;99.90;;;;;;5025712;28;20029;-69
2022/06/21 03:50:38;;;;;;;3.53;2.08;;;11.30;99.90;;;;;;5039199;28;20068;-70
2022/06/21 03:53:09;;;;;;;8.75;2.92;;;11.20;99.90;;;;;;5021247;28;20053;-70
2022/06/21 03:55:57;;;;;;;6.40;2.25;;;11.20;99.90;;;;;;5044413;28;20563;-69
2022/06/21 03:58:37;;;;;;;5.28;2.22;;;11.20;99.90;;;;;;5056732;28;20477;-69
2022/06/21 04:01:18;;;;;;;6.38;2.40;;;11.30;99.90;;;;;;5042100;28;20085;-70
2022/06/21 04:03:53;;;;;;;8.70;2.90;;;11.30;99.90;;;;;;5041425;28;20784;-70
2022/06/21 04:06:52;;;;;;;4.30;2.17;;;11.40;99.90;;;;;;5040157;28;20170;-70
2022/06/21 04:09:47;;;;;;;3.72;2.38;;;11.40;99.90;;;;;;5042685;28;20033;-70
2022/06/21 04:12:24;;;;;;;7.45;2.47;;;11.40;99.90;;;;;;5045211;28;20044;-71
2022/06/21 04:14:54;;;;;;;5.97;2.35;;;11.40;99.90;;;;;;5041772;28;20037;-71
2022/06/21 04:17:29;;;;;;;3.72;2.72;;;11.40;99.90;;;;;;5042890;28;20041;-70
2022/06/21 04:20:20;;;;;;;7.63;2.20;;;11.40;99.90;;;;;;5034522;28;20151;-71
2022/06/21 04:22:56;;;;;;;6.57;2.30;;;11.50;99.90;;;;;;5039873;28;20037;-70
2022/06/21 04:25:39;;;;;;;7.57;2.80;;;11.50;99.90;;;;;;5038620;28;20047;-69
2022/06/21 04:28:25;;;;;;;3.83;2.00;;;11.50;99.90;;;;;;5037331;28;20033;-70
2022/06/21 04:31:02;;;;;;;7.30;2.53;;;11.60;99.90;;;;;;5010683;28;20041;-67
2022/06/21 04:33:34;;;;;;;9.50;3.17;;;11.70;99.90;;;;;;5032822;28;20090;-70
2022/06/21 04:36:10;;;;;;;6.15;2.47;;;11.80;99.90;;;;;;5032282;28;20034;-70
2022/06/21 04:38:43;;;;;;;8.05;2.95;;;11.80;99.90;;;;;;5033242;28;20057;-69
2022/06/21 04:41:17;;;;;;;4.32;2.00;;;11.80;99.90;;;;;;5035675;28;20112;-69
2022/06/21 04:44:18;;;;;;;4.95;2.40;;;11.90;99.90;;;;;;5034261;28;20057;-69
2022/06/21 04:47:04;;;;;;;10.25;2.00;;;12.00;99.90;;;;;;5034562;28;20132;-71
2022/06/21 04:50:02;;;;;;;4.70;2.50;;;12.00;99.90;;;;;;5019886;28;20517;-70
2022/06/21 04:52:38;;;;;;;10.57;2.95;;;12.20;99.90;;;;;;5034660;28;20034;-71
2022/06/21 04:55:09;;;;;;;5.15;1.80;;;12.30;99.90;;;;;;5014152;28;20123;-71
2022/06/21 04:57:35;;;;;;;10.23;2.10;;;12.40;99.90;;;;;;5037385;28;20041;-71
2022/06/21 05:00:10;;;;;;;8.80;1.48;;;12.60;99.90;;;;;;5037052;28;20029;-71
2022/06/21 05:02:42;;;;;;;5.85;1.13;;;12.70;99.90;;;;;;5012499;28;20033;-71
2022/06/21 05:05:20;;;;;;;5.80;1.00;;;12.80;99.90;;;;;;5017248;28;20053;-69
2022/06/21 05:07:49;;;;;;;9.70;1.75;;;12.90;99.90;;;;;;5031144;28;20083;-71
2022/06/21 05:10:22;;;;;;;5.28;1.40;;;13.00;99.90;;;;;;5031288;28;20116;-70
2022/06/21 05:12:50;;;;;;;7.38;1.40;;;13.00;99.90;;;;;;5026577;28;20056;-70
2022/06/21 05:15:22;;;;;;;6.90;1.40;;;13.20;99.90;;;;;;5012991;28;20484;-71
2022/06/21 05:17:58;;;;;;;4.60;1.15;;;13.30;99.90;;;;;;5032520;28;20033;-70
2022/06/21 05:20:30;;;;;;;6.70;1.33;;;13.30;99.90;;;;;;5026331;28;20500;-71
2022/06/21 05:23:01;;;;;;;5.88;1.35;;;13.50;99.90;;;;;;5024692;28;20037;-69
2022/06/21 05:25:34;;;;;;;9.18;1.60;;;13.60;99.90;;;;;;5036921;28;20041;-71
2022/06/21 05:28:09;;;;;;;9.25;2.25;;;13.60;99.90;;;;;;5034836;28;20087;-71
2022/06/21 05:30:46;;;;;;;5.45;1.65;;;13.70;99.90;;;;;;5019296;28;20513;-71
2022/06/21 05:33:21;;;;;;;5.00;1.10;;;13.80;99.90;;;;;;5040560;28;20041;-70
2022/06/21 05:35:47;;;;;;;4.57;0.57;;;13.90;99.90;;;;;;5024298;28;20084;-71
2022/06/21 05:38:22;;;;;;;6.07;1.10;;;14.10;99.90;;;;;;5039186;28;20029;-69
2022/06/21 05:41:04;;;;;;;4.55;1.63;;;14.30;99.90;;;;;;5008532;28;20033;-71
2022/06/21 05:43:37;;;;;;;4.88;1.35;;;14.50;99.90;;;;;;5012812;28;20149;-69
2022/06/21 05:46:13;;;;;;;8.25;1.25;;;14.80;99.90;;;;;;5032582;28;20036;-71
2022/06/21 05:48:40;;;;;;;3.97;0.90;;;15.10;99.90;;;;;;5028606;28;20025;-69
2022/06/21 05:51:11;;;;;;;4.35;0.93;;;15.40;99.90;;;;;;5013076;28;20121;-71
2022/06/21 05:54:06;;;;;;;3.65;0.90;;;15.80;99.90;;;;;;5030109;28;20087;-71
2022/06/21 05:56:34;;;;;;;4.55;0.95;;;16.50;99.90;;;;;;5011266;28;20469;-69
2022/06/21 05:59:01;;;;;;;4.82;0.60;;;17.10;99.90;;;;;;5011635;28;20083;-70
2022/06/21 06:01:49;;;;;;;5.00;1.27;;;17.60;99.90;;;;;;5032651;28;20033;-72
2022/06/21 06:04:29;;;;;;;2.92;0.82;;;18.00;99.90;;;;;;5031883;28;20116;-70
2022/06/21 06:06:57;;;;;;;3.90;0.70;;;18.30;99.90;;;;;;5029499;28;20037;-71
2022/06/21 06:09:27;;;;;;;4.90;1.27;;;18.30;99.90;;;;;;5030060;28;20061;-69
2022/06/21 06:11:58;;;;;;;9.38;1.30;;;18.30;99.90;;;;;;5019791;28;20036;-70
2022/06/21 06:14:29;;;;;;;3.08;0.70;;;18.20;99.90;;;;;;5013490;28;20116;-70
2022/06/21 06:16:57;;;;;;;3.22;0.70;;;18.30;99.90;;;;;;5027204;28;20026;-71
2022/06/21 06:19:34;;;;;;;4.88;0.60;;;18.30;99.90;;;;;;5027232;28;20518;-68
2022/06/21 06:22:06;;;;;;;6.10;0.85;;;18.40;99.90;;;;;;5026848;28;20490;-71
2022/06/21 06:24:41;;;;;;;7.47;0.73;;;18.50;99.90;;;;;;5028133;28;20516;-70
2022/06/21 06:27:22;;;;;;;5.45;0.88;;;18.60;99.90;;;;;;5030652;28;20033;-71
2022/06/21 06:29:51;;;;;;;1.58;0.50;;;18.60;99.90;;;;;;5032711;28;20393;-70
2022/06/21 06:32:31;;;;;;;9.32;1.08;;;18.50;99.90;;;;;;5029531;28;20119;-70
2022/06/21 06:34:56;;;;;;;7.13;0.50;;;18.60;99.90;;;;;;5028783;28;20037;-71
2022/06/21 06:37:30;;;;;;;2.47;0.47;;;18.80;99.90;;;;;;5028282;28;20532;-71
2022/06/21 06:39:57;;;;;;;5.55;0.90;;;18.80;99.90;;;;;;5024947;28;20180;-71
2022/06/21 06:42:26;;;;;;;3.55;0.90;;;19.00;99.90;;;;;;5031637;28;20083;-70
2022/06/21 06:44:57;;;;;;;3.30;0.80;;;19.00;99.90;;;;;;5032497;28;20396;-71
2022/06/21 06:47:29;;;;;;;6.82;0.93;;;19.10;99.90;;;;;;5032922;28;20524;-70
2022/06/21 06:50:10;;;;;;;8.70;0.98;;;19.40;99.90;;;;;;5011701;28;20041;-69
2022/06/21 06:52:41;;;;;;;2.97;0.90;;;19.60;99.90;;;;;;5017127;28;20049;-71
2022/06/21 06:55:25;;;;;;;6.03;1.38;;;19.80;99.90;;;;;;5033251;28;20049;-71
2022/06/21 06:57:57;;;;;;;4.93;1.08;;;20.00;99.90;;;;;;5037336;28;20040;-71
2022/06/21 07:00:28;;;;;;;3.42;0.80;;;20.20;99.90;;;;;;5032464;28;20052;-69
2022/06/21 07:03:30;;;;;;;2.30;1.08;;;20.50;99.90;;;;;;5032117;28;20099;-68
2022/06/21 07:06:13;;;;;;;14.65;1.48;;;20.80;99.90;;;;;;4994079;28;20034;-70
2022/06/21 07:08:51;;;;;;;5.97;0.98;;;21.30;99.90;;;;;;5011616;28;20099;-70
2022/06/21 07:11:37;;;;;;;5.97;0.95;;;21.70;99.40;;;;;;5030788;28;20493;-69
2022/06/21 07:14:04;;;;;;;2.80;0.50;;;22.10;99.90;;;;;;5035214;28;20641;-71
2022/06/21 07:16:34;;;;;;;10.10;1.50;;;22.60;96.70;;;;;;5031837;28;20052;-70
2022/06/21 07:19:01;;;;;;;4.78;0.60;;;22.90;97.20;;;;;;5030662;28;20044;-71
2022/06/21 07:21:27;;;;;;;1.67;0.60;;;22.70;97.40;;;;;;5038009;28;20047;-71
2022/06/21 07:23:57;;;;;;;2.38;0.70;;;23.10;98.00;;;;;;5031490;28;20033;-71
2022/06/21 07:26:41;;;;;;;2.67;0.80;;;24.20;97.40;;;;;;5036346;28;20049;-70
2022/06/21 07:29:22;;;;;;;3.30;0.77;;;25.40;95.70;;;;;;5034759;28;20029;-72
2022/06/21 07:31:59;;;;;;;5.68;1.17;;;26.60;91.60;;;;;;5035647;28;20047;-71
2022/06/21 07:34:43;;;;;;;3.50;0.85;;;27.40;88.90;;;;;;5015581;28;20415;-69
2022/06/21 07:37:20;;;;;;;3.50;1.00;;;28.40;85.50;;;;;;5032275;28;20055;-70
2022/06/21 07:40:00;;;;;;;6.72;1.55;;;27.90;85.20;;;;;;5015120;28;20036;-71
2022/06/21 07:42:40;;;;;;;7.03;1.27;;;26.50;84.40;;;;;;5031011;28;20033;-70
2022/06/21 07:45:21;;;;;;;4.90;0.80;;;24.70;89.00;;;;;;5012682;28;20045;-70
2022/06/21 07:48:22;;;;;;;3.47;1.20;;;23.50;90.60;;;;;;5032950;28;20037;-69
2022/06/21 07:50:51;;;;;;;4.07;1.00;;;22.70;91.60;;;;;;5012244;28;20064;-70
2022/06/21 07:53:28;;;;;;;2.40;0.90;;;22.60;93.10;;;;;;5031483;28;20036;-71
2022/06/21 07:56:04;;;;;;;5.28;1.00;;;23.50;94.00;;;;;;5030837;28;20034;-71
2022/06/21 07:58:30;;;;;;;6.57;1.17;;;24.90;91.70;;;;;;5031118;28;20045;-70
2022/06/21 08:06:45;;;;;;;4.47;1.15;;;27.80;81.30;;;;;;5031635;28;20524;-71
2022/06/21 08:09:32;;;;;;;4.63;1.13;;;27.00;79.60;;;;;;5031736;28;20056;-69
2022/06/21 08:12:00;;;;;;;5.57;1.30;;;26.70;80.70;;;;;;5015273;28;20080;-71
2022/06/21 08:14:30;;;;;;;9.98;1.52;;;26.70;82.70;;;;;;5033425;28;20030;-69
2022/06/21 08:17:05;;;;;;;3.08;1.02;;;26.60;80.70;;;;;;5033911;28;20049;-71
2022/06/21 08:19:40;;;;;;;3.70;1.10;;;26.60;78.40;;;;;;5032007;28;20038;-72
2022/06/21 08:22:16;;;;;;;5.13;1.20;;;26.90;79.80;;;;;;5010492;28;20041;-70
2022/06/21 08:24:56;;;;;;;2.83;0.60;;;26.80;78.50;;;;;;5029743;28;20074;-69
2022/06/21 08:27:27;;;;;;;;;;;26.30;79.40;;;;;;5028346;28;20061;-71
2022/06/21 08:30:11;;;;;;;3.97;0.85;;;26.10;77.50;;;;;;5033300;28;20452;-71
2022/06/21 08:32:57;;;;;;;5.38;1.00;;;25.50;78.50;;;;;;5011410;28;20037;-71
2022/06/21 08:35:30;;;;;;;4.93;1.00;;;24.90;80.70;;;;;;5029510;28;20132;-70
2022/06/21 08:38:20;;;;;;;5.13;0.98;;;24.50;84.40;;;;;;5030207;28;20656;-70
2022/06/21 08:41:52;;;;;;;2.53;0.68;;;24.20;82.10;;;;;;5032169;28;20033;-70
2022/06/21 08:44:46;;;;;;;3.00;0.73;;;23.80;80.30;;;;;;5030238;28;20114;-70
2022/06/21 08:47:46;;;;;;;1.45;0.60;;;23.40;81.70;;;;;;5030999;28;20494;-69
2022/06/21 08:50:48;;;;;;;10.15;0.93;;;23.40;83.40;;;;;;4987185;28;20061;-70
2022/06/21 08:53:17;;;;;;;3.72;0.77;;;23.10;86.50;;;;;;5028570;28;20443;-70
2022/06/21 08:56:13;;;;;;;3.38;0.70;;;23.20;84.80;;;;;;5034455;28;20185;-66
2022/06/21 08:59:03;;;;;;;4.97;0.88;;;23.20;86.50;;;;;;5018560;28;20111;-70
2022/06/21 09:01:46;;;;;;;11.10;0.70;;;23.10;86.70;;;;;;5030119;28;20478;-69
2022/06/21 09:04:31;;;;;;;7.97;0.75;;;23.00;88.00;;;;;;5027365;28;20569;-68
2022/06/21 09:07:27;;;;;;;1.70;0.60;;;23.00;87.20;;;;;;5029066;28;20037;-70
2022/06/21 09:10:04;;;;;;;3.67;0.70;;;23.00;88.60;;;;;;5016240;28;20033;-69
2022/06/21 09:12:51;;;;;;;3.17;0.70;;;23.00;87.20;;;;;;5030474;28;20044;-71
2022/06/21 09:15:32;;;;;;;3.30;0.57;;;23.00;89.10;;;;;;5011550;28;20067;-68
2022/06/21 09:18:34;;;;;;;1.40;0.55;;;23.00;84.50;;;;;;5026461;28;20402;-68
2022/06/21 09:21:25;;;;;;;4.07;0.95;;;22.90;85.70;;;;;;5027712;28;20042;-71
2022/06/21 09:24:09;;;;;;;7.38;1.05;;;22.70;85.80;;;;;;5011306;28;20033;-72
2022/06/21 09:26:53;;;;;;;5.32;0.95;;;22.60;87.90;;;;;;5028239;28;20033;-71
2022/06/21 09:29:24;;;;;;;2.88;1.02;;;22.40;87.90;;;;;;5008423;28;20559;-70
2022/06/21 09:31:56;;;;;;;4.22;1.17;;;22.50;87.90;;;;;;5030562;28;20102;-71
2022/06/21 09:34:36;;;;;;;1.80;0.77;;;22.50;87.50;;;;;;5027952;28;20120;-69
2022/06/21 09:37:17;;;;;;;;;;;22.60;86.80;;;;;;5029478;28;20053;-68
2022/06/21 09:40:09;;;;;;;1.65;0.60;;;22.50;88.70;;;;;;5028908;28;20900;-67
2022/06/21 09:42:46;;;;;;;1.83;0.70;;;22.50;85.30;;;;;;5026537;28;20096;-69
2022/06/21 09:45:34;;;;;;;1.83;0.82;;;22.50;87.40;;;;;;5027118;28;20105;-68
2022/06/21 09:48:11;;;;;;;3.10;0.80;;;22.60;87.70;;;;;;5027220;28;20037;-69
2022/06/21 09:51:04;;;;;;;6.05;0.95;;;22.70;88.10;;;;;;5028344;28;20038;-68
2022/06/21 09:53:38;;;;;;;1.10;0.32;;;22.80;85.10;;;;;;5027104;28;20029;-70
2022/06/21 09:56:21;;;;;;;3.47;0.63;;;22.70;85.60;;;;;;5011307;28;20156;-70
2022/06/21 09:58:58;;;;;;;3.35;0.60;;;22.80;85.90;;;;;;5028405;28;20033;-69
2022/06/21 10:01:38;;;;;;;4.05;1.02;;;22.80;82.30;;;;;;5010879;28;20064;-70
2022/06/21 10:04:16;;;;;;;3.25;1.23;;;22.80;83.50;;;;;;5010184;28;20040;-68
2022/06/21 10:07:18;;;;;;;3.80;1.25;;;22.70;84.90;;;;;;5027451;28;20584;-68
2022/06/21 10:10:02;;;;;;;3.78;0.77;;;22.60;85.90;;;;;;5025933;28;20029;-66
2022/06/21 10:12:49;;;;;;;1.83;0.45;;;22.50;85.20;;;;;;5027007;28;20393;-67
2022/06/21 10:15:23;;;;;;;1.02;0.63;;;22.40;84.30;;;;;;5026831;28;20067;-68
2022/06/21 10:18:21;;;;;;;2.30;0.57;;;22.50;81.50;;;;;;5009220;28;20037;-70
2022/06/21 10:21:02;;;;;;;2.95;0.90;;;22.60;82.30;;;;;;5027510;28;20711;-71
2022/06/21 10:23:56;;;;;;;4.70;0.98;;;22.30;83.80;;;;;;5029961;28;20048;-70
2022/06/21 10:26:43;;;;;;;1.83;0.50;;;22.60;82.40;;;;;;5029412;28;20060;-70
2022/06/21 10:29:50;;;;;;;1.92;0.60;;;22.90;81.40;;;;;;5028888;28;20033;-69
2022/06/21 10:32:50;;;;;;;5.10;0.77;;;23.00;81.80;;;;;;5030578;28;20033;-70
2022/06/21 10:35:44;;;;;;;2.38;0.40;;;23.10;83.40;;;;;;5027032;28;20041;-68
2022/06/21 10:38:28;;;;;;;4.95;1.00;;;23.20;82.40;;;;;;5028525;28;20424;-70
2022/06/21 10:41:06;;;;;;;1.70;0.30;;;23.20;80.50;;;;;;5024239;28;20677;-70
2022/06/21 10:43:50;;;;;;;4.40;0.90;;;23.10;82.50;;;;;;5024800;28;20026;-70
2022/06/21 10:46:38;;;;;;;6.70;0.60;;;23.10;83.30;;;;;;5024251;28;20072;-70
2022/06/21 10:49:22;;;;;;;4.03;0.57;;;23.00;82.00;;;;;;5009019;28;20033;-70
2022/06/21 10:52:06;;;;;;;1.38;0.43;;;23.00;82.00;;;;;;5012440;28;20036;-70
2022/06/21 10:55:00;;;;;;;1.80;0.20;;;22.90;83.10;;;;;;5023901;28;20049;-67
2022/06/21 10:57:44;;;;;;;4.45;0.73;;;22.90;82.60;;;;;;5025055;28;20046;-69
2022/06/21 11:03:18;;;;;;;2.50;0.60;;;22.90;80.90;;;;;;5024875;28;20079;-69
2022/06/21 11:06:05;;;;;;;1.90;0.57;;;23.00;81.90;;;;;;5009932;28;20533;-69
2022/06/21 11:08:39;;;;;;;3.35;0.50;;;23.10;80.30;;;;;;5025038;28;20040;-69
2022/06/21 11:11:13;;;;;;;1.60;0.43;;;22.90;80.90;;;;;;5010145;28;20037;-69
2022/06/21 11:14:01;;;;;;;1.88;0.20;;;22.70;79.50;;;;;;5026605;28;20030;-69
2022/06/21 11:16:56;;;;;;;1.42;0.40;;;22.60;81.90;;;;;;5008407;28;20059;-70
2022/06/21 11:19:25;;;;;;;1.48;0.28;;;22.60;81.60;;;;;;5027145;28;20095;-69
2022/06/21 11:22:14;;;;;;;1.08;0.35;;;22.80;80.70;;;;;;5026715;28;20034;-70
2022/06/21 11:24:46;;;;;;;4.00;0.52;;;23.00;77.30;;;;;;5028262;28;20117;-72
2022/06/21 11:27:21;;;;;;;2.28;0.52;;;23.30;78.80;;;;;;5030884;28;20030;-70
2022/06/21 11:30:10;;;;;;;2.85;0.60;;;23.50;79.00;;;;;;5026880;28;20037;-68
2022/06/21 11:32:53;;;;;;;2.28;0.60;;;23.60;79.40;;;;;;5011010;28;20493;-70
2022/06/21 11:35:38;;;;;;;1.23;0.40;;;23.50;77.20;;;;;;5030220;28;20036;-69
2022/06/21 11:38:36;;;;;;;1.40;0.40;;;23.10;78.40;;;;;;5027620;28;20810;-68
2022/06/21 11:41:11;;;;;;;1.48;0.30;;;22.90;80.80;;;;;;5031500;28;20505;-68
2022/06/21 11:43:58;;;;;;;1.83;0.52;;;22.90;81.40;;;;;;5026558;28;20147;-70
2022/06/21 11:46:33;;;;;;;1.48;0.60;;;23.00;82.70;;;;;;5029956;28;20543;-69
2022/06/21 11:49:17;;;;;;;5.03;0.63;;;23.20;78.90;;;;;;5027580;28;20103;-68
2022/06/21 11:52:11;;;;;;;2.95;0.60;;;23.20;79.30;;;;;;5029127;28;20038;-70
2022/06/21 11:54:47;;;;;;;1.58;0.45;;;23.10;79.90;;;;;;5012303;28;20060;-70
2022/06/21 11:57:25;;;;;;;4.40;0.75;;;23.10;80.30;;;;;;4986168;28;20040;-69
2022/06/21 12:00:10;;;;;;;1.48;0.47;;;23.10;82.90;;;;;;5030873;28;20894;-69
2022/06/21 12:02:56;;;;;;;1.85;0.80;;;23.00;81.10;;;;;;5009501;28;20061;-70
2022/06/21 12:05:46;;;;;;;1.92;0.40;;;22.90;79.60;;;;;;5012603;28;20464;-70
2022/06/21 12:08:26;;;;;;;4.03;0.30;;;22.90;81.50;;;;;;5030083;28;20037;-71
2022/06/21 12:10:55;;;;;;;1.17;0.40;;;23.00;79.90;;;;;;5029407;28;20099;-67
2022/06/21 12:13:53;;;;;;;3.00;0.80;;;23.00;82.00;;;;;;5014783;28;20048;-70
2022/06/21 12:16:40;;;;;;;7.65;0.73;;;23.00;83.80;;;;;;5027661;28;20041;-69
2022/06/21 12:19:16;;;;;;;10.75;1.17;;;23.20;82.70;;;;;;5013883;28;20396;-71
2022/06/21 12:21:52;;;;;;;4.15;0.60;;;23.30;82.60;;;;;;5013721;28;20037;-69
2022/06/21 12:24:22;;;;;;;3.08;0.82;;;23.30;82.90;;;;;;5029870;28;20041;-70
2022/06/21 12:26:48;;;;;;;2.15;0.98;;;23.10;81.60;;;;;;5012716;28;20064;-68
2022/06/21 12:29:16;;;;;;;2.97;0.60;;;23.10;83.30;;;;;;5033309;28;20136;-71
2022/06/21 12:32:01;;;;;;;6.05;1.08;;;23.40;82.40;;;;;;5011528;28;20067;-71
2022/06/21 12:34:51;;;;;;;3.30;0.70;;;23.40;81.00;;;;;;5028323;28;20037;-70
2022/06/21 12:37:25;;;;;;;0.83;0.53;;;23.40;81.80;;;;;;5029586;28;20103;-68
2022/06/21 12:40:14;;;;;;;3.22;0.63;;;23.40;82.40;;;;;;5029701;28;20045;-71
2022/06/21 12:42:40;;;;;;;2.15;0.40;;;23.50;81.30;;;;;;5025830;28;20094;-71
2022/06/21 12:45:24;;;;;;;5.15;0.52;;;23.60;82.00;;;;;;5026881;28;20033;-70
2022/06/21 12:48:09;;;;;;;3.33;0.75;;;23.70;83.40;;;;;;5029687;28;20025;-70
2022/06/21 12:50:53;;;;;;;2.13;0.68;;;23.70;82.30;;;;;;5013531;28;20092;-71
2022/06/21 12:53:56;;;;;;;3.25;1.02;;;23.80;79.00;;;;;;5029173;28;20034;-69
2022/06/21 12:56:43;;;;;;;4.60;1.00;;;23.70;80.50;;;;;;5027597;28;20057;-70
2022/06/21 12:59:24;;;;;;;1.88;0.40;;;23.60;79.10;;;;;;5027716;28;20050;-71
2022/06/21 13:02:14;;;;;;;3.50;0.85;;;23.50;79.00;;;;;;5013297;28;20447;-69
2022/06/21 13:05:08;;;;;;;4.20;0.93;;;23.30;80.90;;;;;;5010317;28;20049;-69
2022/06/21 13:08:24;;;;;;;3.03;0.60;;;23.40;79.80;;;;;;4982015;28;20037;-68
2022/06/21 13:11:14;;;;;;;3.08;0.43;;;23.40;80.90;;;;;;5008224;28;20041;-68
2022/06/21 13:13:58;;;;;;;2.75;0.40;;;23.40;82.00;;;;;;5026881;28;20038;-70
2022/06/21 13:16:30;;;;;;;1.33;0.22;;;23.50;80.40;;;;;;5026380;28;20116;-68
2022/06/21 13:19:07;;;;;;;2.85;0.63;;;23.70;80.30;;;;;;5027556;28;20046;-70
2022/06/21 13:21:51;;;;;;;3.03;0.45;;;23.80;76.50;;;;;;5028132;28;20041;-67
2022/06/21 13:24:35;;;;;;;3.50;0.40;;;23.90;80.20;;;;;;5030452;28;20523;-69
2022/06/21 13:27:07;;;;;;;1.88;0.43;;;24.10;78.20;;;;;;5028040;28;20507;-67
2022/06/21 13:29:47;;;;;;;2.65;0.40;;;24.00;81.10;;;;;;5011629;28;20520;-69
2022/06/21 13:32:23;;;;;;;2.78;0.90;;;24.10;79.80;;;;;;5009030;28;20044;-70
2022/06/21 13:35:10;;;;;;;2.03;0.40;;;24.00;77.80;;;;;;5011054;28;20498;-68
2022/06/21 13:37:56;;;;;;;0.77;0.40;;;23.80;77.90;;;;;;5026698;28;20040;-71
2022/06/21 13:40:33;;;;;;;3.88;0.63;;;23.70;77.20;;;;;;5027150;28;20045;-70
2022/06/21 13:43:08;;;;;;;1.27;0.15;;;23.60;79.20;;;;;;5004423;28;20597;-70
2022/06/21 13:45:58;;;;;;;2.45;0.50;;;23.60;81.20;;;;;;5028493;28;20715;-68
2022/06/21 13:48:35;;;;;;;1.67;0.60;;;23.70;79.00;;;;;;5026811;28;20038;-69
2022/06/21 13:51:13;;;;;;;2.63;0.60;;;23.70;82.30;;;;;;5026920;28;20057;-67
2022/06/21 13:53:54;;;;;;;6.13;0.50;;;23.70;78.30;;;;;;5028568;28;20034;-70
2022/06/21 13:56:30;;;;;;;1.70;0.30;;;23.70;78.50;;;;;;5028321;28;20044;-68